Time;durP1;ratioP1;P1;durP2;ratioP2;P2;SDS_P1;SDS_P2;PMS_P1;PMS_P2;Temp;Humidity;BMP_temperature;BMP_pressure;BME280_temperature;BME280_humidity;BME280_pressure;Samples;Min_cycle;Max_cycle;Signal;HPM_P1;HPM_P2
2024/02/20 00:00:25;;;;;;;0.90;0.40;;;9.40;51.10;;;;;;5141709;27;20427;-60
2024/02/20 00:02:52;;;;;;;1.90;0.45;;;9.50;90.90;;;;;;5137621;27;20423;-60
2024/02/20 00:05:21;;;;;;;1.10;0.50;;;9.60;94.10;;;;;;5126501;27;20850;-60
2024/02/20 00:07:48;;;;;;;1.30;0.40;;;9.50;68.10;;;;;;5138554;27;20510;-60
2024/02/20 00:10:16;;;;;;;0.90;0.40;;;9.50;90.90;;;;;;5143838;27;20427;-61
2024/02/20 00:12:44;;;;;;;0.80;0.40;;;9.50;57.20;;;;;;5136957;27;20430;-60
2024/02/20 00:15:11;;;;;;;1.50;0.40;;;9.40;80.30;;;;;;5156419;27;20840;-60
2024/02/20 00:17:38;;;;;;;0.90;0.50;;;9.50;91.10;;;;;;5158031;27;20456;-60
2024/02/20 00:20:06;;;;;;;1.10;0.43;;;9.50;91.80;;;;;;5141327;27;20851;-60
2024/02/20 00:22:33;;;;;;;1.33;0.40;;;9.50;72.80;;;;;;5135594;27;20431;-60
2024/02/20 00:25:00;;;;;;;0.63;0.40;;;9.50;90.30;;;;;;5154195;27;20429;-60
2024/02/20 00:27:28;;;;;;;0.70;0.40;;;9.60;92.90;;;;;;5138093;27;20487;-59
2024/02/20 00:29:56;;;;;;;1.00;0.50;;;9.70;93.70;;;;;;5137387;27;20434;-60
2024/02/20 00:32:23;;;;;;;0.70;0.40;;;9.70;65.30;;;;;;5148856;27;20822;-60
2024/02/20 00:34:50;;;;;;;1.10;0.40;;;9.80;69.00;;;;;;5159207;27;20463;-60
2024/02/20 00:37:17;;;;;;;0.70;0.40;;;9.70;75.60;;;;;;5150256;27;20503;-60
2024/02/20 00:39:46;;;;;;;1.60;0.50;;;9.80;70.70;;;;;;5137510;27;20737;-60
2024/02/20 00:42:13;;;;;;;0.70;0.40;;;9.70;78.00;;;;;;5135642;27;20489;-61
2024/02/20 00:44:41;;;;;;;0.90;0.40;;;9.70;64.50;;;;;;5137277;27;20418;-60
2024/02/20 00:47:09;;;;;;;1.20;0.50;;;9.50;60.20;;;;;;5138007;27;20419;-60
2024/02/20 00:49:38;;;;;;;0.70;0.50;;;9.60;89.90;;;;;;5147828;27;20430;-60
2024/02/20 00:52:05;;;;;;;0.85;0.40;;;9.70;58.70;;;;;;5159135;27;20421;-60
2024/02/20 00:54:32;;;;;;;1.38;0.40;;;9.60;43.30;;;;;;5158648;27;20440;-60
2024/02/20 00:56:59;;;;;;;1.70;0.32;;;9.70;72.50;;;;;;5158206;27;20773;-60
2024/02/20 00:59:26;;;;;;;1.40;0.30;;;9.70;38.00;;;;;;5148558;27;20895;-59
2024/02/20 01:01:53;;;;;;;2.93;0.40;;;9.70;41.00;;;;;;5138280;27;20422;-60
2024/02/20 01:04:22;;;;;;;0.90;0.30;;;9.80;28.70;;;;;;5138091;27;20498;-60
2024/02/20 01:06:48;;;;;;;1.90;0.40;;;9.70;24.90;;;;;;5137908;27;20418;-60
2024/02/20 01:09:15;;;;;;;0.60;0.30;;;9.70;35.40;;;;;;5137712;27;20529;-60
2024/02/20 01:11:43;;;;;;;1.48;0.40;;;9.70;15.10;;;;;;5137828;27;20410;-60
2024/02/20 01:14:11;;;;;;;0.70;0.38;;;9.70;7.30;;;;;;5137367;27;20453;-60
2024/02/20 01:16:38;;;;;;;1.00;0.40;;;9.70;1.00;;;;;;5136779;27;20517;-61
2024/02/20 01:19:04;;;;;;;0.70;0.40;;;9.80;22.60;;;;;;5137689;27;20470;-60
2024/02/20 01:21:33;;;;;;;0.82;0.40;;;9.60;1.00;;;;;;5150077;27;20428;-60
2024/02/20 01:23:59;;;;;;;3.13;0.40;;;9.60;13.20;;;;;;5139763;27;20419;-60
2024/02/20 01:26:26;;;;;;;0.60;0.30;;;9.60;1.00;;;;;;5135970;27;20419;-60
2024/02/20 01:28:53;;;;;;;1.40;0.40;;;9.50;1.00;;;;;;5136951;27;20491;-61
2024/02/20 01:31:21;;;;;;;0.60;0.30;;;9.50;1.00;;;;;;5137323;27;20462;-60
2024/02/20 01:33:48;;;;;;;0.60;0.40;;;9.60;21.10;;;;;;5128764;27;20430;-61
2024/02/20 01:36:15;;;;;;;1.10;0.30;;;9.60;3.20;;;;;;5154778;27;20439;-61
2024/02/20 01:38:43;;;;;;;0.70;0.40;;;9.60;1.00;;;;;;5153847;27;20904;-60
2024/02/20 01:41:10;;;;;;;0.70;0.30;;;9.60;1.00;;;;;;5134860;28;20450;-60
2024/02/20 01:43:37;;;;;;;0.60;0.40;;;9.70;1.00;;;;;;5137289;28;20708;-61
2024/02/20 01:46:05;;;;;;;0.90;0.32;;;9.60;1.00;;;;;;5136981;28;20450;-61
2024/02/20 01:48:34;;;;;;;1.23;0.40;;;9.70;1.00;;;;;;5137386;28;20445;-61
2024/02/20 01:51:01;;;;;;;1.33;0.40;;;9.70;1.00;;;;;;5132058;28;20706;-61
2024/02/20 01:53:30;;;;;;;1.27;0.40;;;9.60;1.00;;;;;;5137018;27;20494;-61
2024/02/20 01:56:00;;;;;;;1.30;0.40;;;9.70;1.00;;;;;;5120954;27;20832;-60
2024/02/20 01:58:27;;;;;;;0.60;0.30;;;9.70;1.00;;;;;;5139206;27;20441;-61
2024/02/20 02:00:54;;;;;;;1.63;0.40;;;9.80;1.00;;;;;;5135770;27;20429;-61
2024/02/20 02:03:21;;;;;;;1.05;0.40;;;9.70;1.00;;;;;;5155476;27;20862;-61
2024/02/20 02:05:48;;;;;;;0.55;0.32;;;9.60;1.00;;;;;;5138508;27;20418;-61
2024/02/20 02:08:17;;;;;;;1.70;0.40;;;9.60;1.00;;;;;;5158171;27;20508;-61
2024/02/20 02:10:44;;;;;;;1.10;0.38;;;9.60;1.00;;;;;;5133686;27;20432;-61
2024/02/20 02:13:13;;;;;;;0.70;0.30;;;9.60;1.00;;;;;;5156360;27;20461;-61
2024/02/20 02:15:40;;;;;;;0.80;0.38;;;9.60;1.00;;;;;;5159044;27;21001;-61
2024/02/20 02:18:07;;;;;;;0.70;0.40;;;9.50;1.00;;;;;;5154501;27;20508;-60
2024/02/20 02:20:33;;;;;;;0.80;0.30;;;9.50;1.00;;;;;;5155791;27;20441;-61
2024/02/20 02:23:00;;;;;;;1.35;0.40;;;9.60;1.00;;;;;;5138754;27;20465;-60
2024/02/20 02:25:27;;;;;;;0.90;0.45;;;9.50;1.00;;;;;;5159432;27;20456;-60
2024/02/20 02:27:55;;;;;;;1.20;0.40;;;9.50;1.00;;;;;;5159699;27;20496;-61
2024/02/20 02:30:23;;;;;;;2.40;0.30;;;9.60;1.00;;;;;;5157981;27;20484;-61
2024/02/20 02:32:51;;;;;;;1.23;0.32;;;9.60;1.00;;;;;;5157642;27;20763;-60
2024/02/20 02:35:18;;;;;;;0.70;0.30;;;9.60;1.00;;;;;;5161120;27;20446;-61
2024/02/20 02:37:45;;;;;;;0.70;0.40;;;9.60;1.00;;;;;;5160866;27;20439;-61
2024/02/20 02:40:13;;;;;;;0.60;0.30;;;9.60;1.00;;;;;;5140762;27;20519;-60
2024/02/20 02:42:39;;;;;;;2.00;0.30;;;9.60;1.00;;;;;;5140378;27;20433;-61
2024/02/20 02:45:09;;;;;;;1.70;0.40;;;9.80;1.00;;;;;;5139168;27;20426;-60
2024/02/20 02:47:35;;;;;;;3.10;0.30;;;9.70;1.00;;;;;;5139368;27;20509;-60
2024/02/20 02:50:02;;;;;;;1.60;0.40;;;9.70;1.00;;;;;;5140146;27;20510;-60
2024/02/20 02:52:29;;;;;;;0.90;0.40;;;9.60;1.00;;;;;;5139382;27;20499;-60
2024/02/20 02:54:56;;;;;;;0.60;0.30;;;9.50;1.00;;;;;;5140093;27;20431;-62
2024/02/20 02:57:23;;;;;;;1.00;0.40;;;9.60;1.00;;;;;;5138572;27;20465;-60
2024/02/20 02:59:50;;;;;;;1.15;0.40;;;9.80;1.00;;;;;;5133096;27;20459;-62
2024/02/20 03:02:19;;;;;;;1.17;0.45;;;9.80;1.00;;;;;;5138683;27;20469;-60
2024/02/20 03:04:46;;;;;;;1.30;0.40;;;9.80;1.00;;;;;;5133469;27;20422;-60
2024/02/20 03:07:13;;;;;;;1.23;0.40;;;9.70;1.00;;;;;;5139000;27;20446;-60
2024/02/20 03:09:40;;;;;;;1.50;0.30;;;9.70;1.00;;;;;;5139917;27;20482;-60
2024/02/20 03:12:07;;;;;;;1.05;0.38;;;9.60;1.00;;;;;;5136883;27;20891;-60
2024/02/20 03:14:35;;;;;;;0.60;0.30;;;9.50;1.00;;;;;;5139397;27;20442;-60
2024/02/20 03:17:02;;;;;;;1.40;0.30;;;9.70;1.00;;;;;;5147148;27;20444;-59
2024/02/20 03:19:30;;;;;;;2.00;0.30;;;9.80;1.00;;;;;;5160237;27;20494;-60
2024/02/20 03:21:57;;;;;;;0.70;0.30;;;9.70;1.00;;;;;;5160544;27;20417;-60
2024/02/20 03:24:23;;;;;;;0.70;0.30;;;9.70;1.00;;;;;;5160301;27;20444;-60
2024/02/20 03:26:50;;;;;;;0.90;0.30;;;9.60;1.00;;;;;;5160465;27;20437;-59
2024/02/20 03:29:17;;;;;;;1.10;0.40;;;9.70;1.00;;;;;;5159307;27;20412;-59
2024/02/20 03:31:44;;;;;;;1.00;0.40;;;9.70;1.00;;;;;;5146978;27;20469;-60
2024/02/20 03:34:11;;;;;;;0.60;0.40;;;9.50;1.00;;;;;;5147620;27;20435;-59
2024/02/20 03:36:39;;;;;;;1.10;0.40;;;9.60;1.00;;;;;;5159583;27;20460;-59
2024/02/20 03:39:07;;;;;;;1.10;0.40;;;9.60;1.00;;;;;;5159573;27;20460;-59
2024/02/20 03:41:34;;;;;;;1.40;0.40;;;9.50;1.00;;;;;;5141514;27;20434;-59
2024/02/20 03:44:01;;;;;;;1.30;0.30;;;9.40;1.00;;;;;;5138237;27;20771;-60
2024/02/20 03:46:29;;;;;;;1.33;0.40;;;9.30;1.00;;;;;;5139434;27;20458;-60
2024/02/20 03:48:56;;;;;;;1.30;0.40;;;9.40;1.00;;;;;;5131274;27;20464;-59
2024/02/20 03:51:22;;;;;;;1.15;0.30;;;9.50;1.00;;;;;;5140750;27;20448;-59
2024/02/20 03:53:51;;;;;;;2.00;0.50;;;9.50;1.00;;;;;;5158943;27;20498;-60
2024/02/20 03:56:18;;;;;;;1.73;0.40;;;9.30;1.00;;;;;;5157498;27;20421;-60
2024/02/20 03:58:45;;;;;;;1.08;0.40;;;9.40;1.00;;;;;;5154527;27;20453;-60
2024/02/20 04:01:12;;;;;;;1.00;0.40;;;9.40;1.00;;;;;;5138288;27;20426;-60
2024/02/20 04:03:39;;;;;;;1.02;0.40;;;9.40;1.00;;;;;;5147335;27;20457;-60
2024/02/20 04:06:08;;;;;;;2.00;0.40;;;9.50;1.00;;;;;;5139095;27;20454;-60
2024/02/20 04:08:37;;;;;;;1.58;0.40;;;9.40;1.00;;;;;;5146029;27;20563;-60
2024/02/20 04:11:06;;;;;;;1.50;0.40;;;9.40;1.00;;;;;;5138415;27;20570;-60
2024/02/20 04:13:33;;;;;;;1.75;0.40;;;9.30;1.00;;;;;;5138221;27;20426;-60
2024/02/20 04:16:00;;;;;;;1.20;0.50;;;9.40;1.00;;;;;;5154622;27;20460;-60
2024/02/20 04:18:27;;;;;;;0.80;0.40;;;9.40;1.00;;;;;;5157968;27;20548;-60
2024/02/20 04:20:54;;;;;;;0.70;0.40;;;9.40;1.00;;;;;;5149613;27;20457;-59
2024/02/20 04:23:21;;;;;;;2.90;0.30;;;9.40;1.00;;;;;;5133205;27;20759;-60
2024/02/20 04:25:48;;;;;;;2.13;0.30;;;9.40;1.00;;;;;;5158011;27;20428;-60
2024/02/20 04:28:16;;;;;;;1.20;0.40;;;9.30;1.00;;;;;;5157319;27;20484;-60
2024/02/20 04:30:44;;;;;;;1.10;0.30;;;9.20;1.00;;;;;;5158369;27;20468;-59
2024/02/20 04:33:11;;;;;;;1.13;0.30;;;9.30;1.00;;;;;;5157198;27;20417;-60
2024/02/20 04:35:38;;;;;;;1.10;0.30;;;9.40;1.00;;;;;;5151977;27;20448;-59
2024/02/20 04:38:05;;;;;;;0.70;0.30;;;9.40;1.00;;;;;;5157096;27;20425;-59
2024/02/20 04:40:32;;;;;;;0.60;0.30;;;9.30;1.00;;;;;;5148767;27;20894;-59
2024/02/20 04:43:00;;;;;;;2.10;0.40;;;9.20;1.00;;;;;;5146218;27;20523;-59
2024/02/20 04:45:29;;;;;;;0.70;0.30;;;9.10;1.00;;;;;;5158068;27;20500;-60
2024/02/20 04:47:55;;;;;;;1.20;0.38;;;9.20;1.00;;;;;;5137362;27;20442;-60
2024/02/20 04:50:23;;;;;;;1.70;0.40;;;9.20;1.00;;;;;;5137547;27;20447;-60
2024/02/20 04:52:49;;;;;;;1.10;0.40;;;9.10;1.00;;;;;;5153303;27;20441;-59
2024/02/20 04:55:16;;;;;;;1.45;0.40;;;9.10;1.00;;;;;;5157554;27;20781;-60
2024/02/20 04:57:43;;;;;;;1.30;0.40;;;8.90;1.00;;;;;;5157260;27;20503;-59
2024/02/20 05:00:11;;;;;;;1.30;0.40;;;8.80;1.00;;;;;;5155173;27;20721;-60
2024/02/20 05:02:42;;;;;;;0.93;0.30;;;8.80;1.00;;;;;;5143858;27;20418;-59
2024/02/20 05:05:09;;;;;;;1.50;0.38;;;9.00;1.00;;;;;;5150825;27;20430;-59
2024/02/20 05:07:36;;;;;;;1.55;0.40;;;8.90;1.00;;;;;;5135647;27;20454;-60
2024/02/20 05:10:06;;;;;;;2.00;0.40;;;8.90;1.00;;;;;;5152401;27;20413;-60
2024/02/20 05:12:33;;;;;;;0.70;0.30;;;8.90;1.00;;;;;;5137512;27;20469;-60
2024/02/20 05:15:00;;;;;;;1.10;0.40;;;8.90;1.00;;;;;;5158213;27;20751;-59
2024/02/20 05:17:28;;;;;;;1.23;0.40;;;9.00;1.00;;;;;;5157447;27;20576;-59
2024/02/20 05:19:57;;;;;;;1.00;0.30;;;8.90;1.00;;;;;;5157073;27;20433;-60
2024/02/20 05:22:24;;;;;;;1.42;0.30;;;9.00;1.00;;;;;;5157987;27;20428;-60
2024/02/20 05:24:51;;;;;;;1.15;0.40;;;8.70;1.00;;;;;;5157237;27;20890;-59
2024/02/20 05:27:18;;;;;;;2.20;0.50;;;8.70;1.00;;;;;;5134433;27;20418;-59
2024/02/20 05:29:44;;;;;;;1.13;0.40;;;8.80;1.00;;;;;;5131005;27;20777;-59
2024/02/20 05:32:11;;;;;;;2.10;0.40;;;8.90;1.00;;;;;;5119873;27;20777;-59
2024/02/20 05:34:38;;;;;;;1.40;0.60;;;9.00;1.00;;;;;;5136789;27;20534;-59
2024/02/20 05:37:06;;;;;;;2.20;0.30;;;8.90;1.00;;;;;;5148550;27;20473;-60
2024/02/20 05:39:34;;;;;;;1.97;0.30;;;8.80;1.00;;;;;;5140669;27;20924;-59
2024/02/20 05:42:01;;;;;;;2.60;0.40;;;8.90;1.00;;;;;;5138360;27;21012;-58
2024/02/20 05:44:27;;;;;;;2.10;0.40;;;8.90;1.00;;;;;;5156786;27;20825;-59
2024/02/20 05:46:55;;;;;;;2.00;0.40;;;8.80;1.00;;;;;;5156335;27;20902;-60
2024/02/20 05:49:23;;;;;;;1.20;0.40;;;8.60;1.00;;;;;;5151627;27;20838;-59
2024/02/20 05:51:51;;;;;;;4.50;0.40;;;8.60;1.00;;;;;;5154939;27;20424;-59
2024/02/20 05:54:22;;;;;;;0.80;0.30;;;8.70;1.00;;;;;;5156190;27;20477;-60
2024/02/20 05:56:49;;;;;;;2.33;0.40;;;8.80;1.00;;;;;;5154813;27;20546;-60
2024/02/20 05:59:16;;;;;;;1.48;0.30;;;8.80;1.00;;;;;;5148789;27;20743;-60
2024/02/20 06:01:43;;;;;;;1.42;0.38;;;8.70;1.00;;;;;;5130745;27;20441;-59
2024/02/20 06:04:10;;;;;;;1.00;0.30;;;8.70;1.00;;;;;;5118754;28;20829;-60
2024/02/20 06:06:37;;;;;;;1.95;0.30;;;8.70;1.00;;;;;;5134884;28;20406;-60
2024/02/20 06:09:04;;;;;;;0.75;0.40;;;8.80;1.00;;;;;;5147724;27;20850;-60
2024/02/20 06:11:35;;;;;;;1.58;0.40;;;8.80;1.00;;;;;;5126395;27;20422;-58
2024/02/20 06:14:02;;;;;;;1.40;0.30;;;8.80;1.00;;;;;;5126167;27;20526;-58
2024/02/20 06:16:29;;;;;;;1.50;0.30;;;8.80;1.00;;;;;;5138549;27;20430;-59
2024/02/20 06:18:56;;;;;;;1.70;0.40;;;8.90;1.00;;;;;;5136967;27;20453;-59
2024/02/20 06:21:23;;;;;;;2.50;0.30;;;8.80;99.90;;;;;;5134341;27;20521;-59
2024/02/20 06:23:50;;;;;;;1.90;0.40;;;8.80;1.00;;;;;;5127960;28;20511;-58
2024/02/20 06:26:18;;;;;;;2.20;0.40;;;8.80;1.00;;;;;;5136889;27;20444;-58
2024/02/20 06:28:47;;;;;;;1.35;0.30;;;8.80;1.00;;;;;;5154972;27;20444;-59
2024/02/20 06:31:14;;;;;;;1.00;0.40;;;8.70;1.00;;;;;;5137157;27;20740;-58
2024/02/20 06:33:42;;;;;;;1.80;0.40;;;8.80;1.00;;;;;;5135866;28;20473;-60
2024/02/20 06:36:10;;;;;;;1.30;0.40;;;8.90;1.00;;;;;;5122786;28;20424;-59
2024/02/20 06:38:37;;;;;;;1.80;0.30;;;8.90;1.00;;;;;;5128776;28;20478;-59
2024/02/20 06:41:04;;;;;;;1.90;0.40;;;8.80;99.90;;;;;;5128895;27;20921;-59
2024/02/20 06:43:31;;;;;;;1.40;0.40;;;8.50;99.90;;;;;;5136366;27;20889;-58
2024/02/20 06:46:01;;;;;;;1.45;0.40;;;8.70;1.00;;;;;;5138406;27;20511;-60
2024/02/20 06:48:28;;;;;;;2.50;0.70;;;8.80;1.00;;;;;;5150290;27;20856;-59
2024/02/20 06:50:55;;;;;;;1.40;0.50;;;8.70;1.00;;;;;;5160182;27;20409;-59
2024/02/20 06:53:22;;;;;;;1.47;0.33;;;8.80;1.00;;;;;;5160485;27;20452;-58
2024/02/20 06:55:48;;;;;;;1.67;0.40;;;8.60;99.90;;;;;;5160373;27;20456;-59
2024/02/20 06:58:15;;;;;;;0.77;0.40;;;8.50;1.00;;;;;;5158296;27;20481;-59
2024/02/20 07:00:43;;;;;;;1.00;0.40;;;8.40;1.00;;;;;;5142825;27;20776;-59
2024/02/20 07:03:13;;;;;;;2.95;0.45;;;8.30;1.00;;;;;;5136046;27;20444;-58
2024/02/20 07:05:40;;;;;;;1.57;0.40;;;8.50;1.00;;;;;;5139262;27;20410;-58
2024/02/20 07:08:08;;;;;;;2.08;0.30;;;8.70;1.00;;;;;;5138987;27;20461;-57
2024/02/20 07:10:35;;;;;;;3.17;0.35;;;8.70;1.00;;;;;;5139465;27;20468;-59
2024/02/20 07:13:02;;;;;;;1.23;0.38;;;8.70;1.00;;;;;;5132151;27;20430;-58
2024/02/20 07:15:29;;;;;;;0.70;0.30;;;8.70;1.00;;;;;;5153463;27;20522;-58
2024/02/20 07:17:56;;;;;;;2.80;0.40;;;8.60;1.00;;;;;;5159545;27;20444;-65
2024/02/20 07:20:24;;;;;;;1.42;0.30;;;8.70;1.00;;;;;;5134051;27;20435;-59
2024/02/20 07:22:52;;;;;;;1.83;0.50;;;8.50;1.00;;;;;;5129781;27;20857;-59
2024/02/20 07:25:19;;;;;;;1.65;0.40;;;8.40;1.00;;;;;;5135101;27;20463;-58
2024/02/20 07:27:46;;;;;;;3.22;0.40;;;8.50;1.00;;;;;;5135493;27;20684;-59
2024/02/20 07:30:14;;;;;;;2.50;0.50;;;8.70;1.00;;;;;;5119389;27;20513;-59
2024/02/20 07:32:42;;;;;;;1.65;0.50;;;8.70;1.00;;;;;;5134884;27;20495;-58
2024/02/20 07:35:11;;;;;;;1.70;0.50;;;8.60;1.00;;;;;;5130237;27;20440;-59
2024/02/20 07:37:39;;;;;;;1.75;0.40;;;8.60;1.00;;;;;;5131402;27;20434;-60
2024/02/20 07:40:08;;;;;;;1.15;0.40;;;8.90;1.00;;;;;;5135624;27;20469;-58
2024/02/20 07:42:35;;;;;;;2.28;0.40;;;8.80;1.00;;;;;;5133055;27;20426;-59
2024/02/20 07:45:03;;;;;;;2.65;0.40;;;8.50;99.90;;;;;;5130422;27;20438;-59
2024/02/20 07:47:30;;;;;;;2.30;0.50;;;8.80;1.00;;;;;;5158579;27;20416;-59
2024/02/20 07:49:57;;;;;;;1.90;0.60;;;9.00;1.00;;;;;;5144737;27;20853;-59
2024/02/20 07:52:24;;;;;;;2.05;0.40;;;9.00;1.00;;;;;;5131499;27;20430;-60
2024/02/20 07:54:53;;;;;;;3.22;0.40;;;9.10;99.90;;;;;;5134782;27;20434;-57
2024/02/20 07:57:20;;;;;;;2.50;0.50;;;9.40;1.00;;;;;;5120954;27;20493;-57
2024/02/20 07:59:47;;;;;;;2.13;0.50;;;9.40;1.00;;;;;;5127689;27;20438;-58
2024/02/20 08:02:15;;;;;;;1.30;0.40;;;9.30;1.00;;;;;;5131543;27;20782;-58
2024/02/20 08:04:42;;;;;;;1.23;0.40;;;9.40;1.00;;;;;;5136939;27;20457;-58
2024/02/20 08:07:13;;;;;;;1.70;0.30;;;9.50;1.00;;;;;;5135192;27;20435;-58
2024/02/20 08:09:40;;;;;;;2.92;0.43;;;9.70;99.90;;;;;;5135004;27;20493;-58
2024/02/20 08:12:08;;;;;;;4.22;0.60;;;9.70;99.90;;;;;;5130546;27;20932;-57
2024/02/20 08:14:35;;;;;;;2.33;0.40;;;9.50;99.90;;;;;;5128382;27;20464;-58
2024/02/20 08:17:02;;;;;;;1.45;0.40;;;9.70;99.90;;;;;;5130722;27;20499;-59
2024/02/20 08:19:29;;;;;;;2.75;0.50;;;9.60;1.00;;;;;;5134711;27;20474;-58
2024/02/20 08:21:56;;;;;;;2.03;0.50;;;9.20;99.90;;;;;;5109514;27;20522;-58
2024/02/20 08:24:23;;;;;;;2.60;0.40;;;9.20;1.00;;;;;;5119273;27;22182;-58
2024/02/20 08:26:50;;;;;;;1.67;0.40;;;9.40;1.00;;;;;;5125089;27;20569;-58
2024/02/20 08:29:18;;;;;;;3.13;0.40;;;9.60;99.90;;;;;;5128578;27;20445;-58
2024/02/20 08:31:45;;;;;;;2.50;0.50;;;9.80;1.00;;;;;;5120223;27;20912;-59
2024/02/20 08:34:12;;;;;;;1.83;0.40;;;9.70;1.00;;;;;;5120282;27;20526;-58
2024/02/20 08:36:39;;;;;;;2.00;0.40;;;9.40;1.00;;;;;;5120079;27;20842;-58
2024/02/20 08:39:06;;;;;;;2.40;0.50;;;9.60;99.90;;;;;;5119370;27;20435;-59
2024/02/20 08:41:33;;;;;;;2.72;0.50;;;9.50;1.00;;;;;;5119701;27;20521;-59
2024/02/20 08:44:00;;;;;;;1.63;0.40;;;9.80;1.00;;;;;;5121319;27;20552;-59
2024/02/20 08:46:31;;;;;;;2.00;0.40;;;10.10;99.90;;;;;;5123469;27;20553;-58
2024/02/20 08:48:58;;;;;;;1.38;0.40;;;10.20;1.00;;;;;;5135675;27;20833;-59
2024/02/20 08:51:25;;;;;;;2.72;0.50;;;10.30;99.90;;;;;;5133886;27;20520;-58
2024/02/20 08:53:52;;;;;;;1.30;0.50;;;10.10;99.90;;;;;;5132286;27;20473;-59
2024/02/20 08:56:22;;;;;;;3.97;0.60;;;10.20;1.00;;;;;;5137035;27;20557;-59
2024/02/20 08:58:51;;;;;;;1.92;0.40;;;10.30;1.00;;;;;;5133530;27;20517;-58
2024/02/20 09:01:18;;;;;;;4.30;0.50;;;10.40;99.90;;;;;;5136634;27;20726;-58
2024/02/20 09:03:47;;;;;;;1.90;0.50;;;10.10;99.90;;;;;;5138181;27;20439;-57
2024/02/20 09:08:47;;;;;;;1.75;0.60;;;9.70;1.00;;;;;;5172312;27;20361;-59
2024/02/20 09:11:14;;;;;;;3.33;0.40;;;9.60;1.00;;;;;;5173847;27;20451;-60
2024/02/20 09:13:41;;;;;;;2.08;0.40;;;9.80;1.00;;;;;;5173845;27;20475;-59
2024/02/20 09:16:08;;;;;;;3.13;0.50;;;9.70;1.00;;;;;;5175788;27;20589;-60
2024/02/20 09:18:35;;;;;;;3.10;0.50;;;9.90;99.90;;;;;;5174830;27;20448;-59
2024/02/20 09:21:02;;;;;;;1.42;0.50;;;9.90;1.00;;;;;;5170580;27;20469;-59
2024/02/20 09:23:29;;;;;;;2.63;0.50;;;10.10;99.90;;;;;;5171222;27;20484;-59
2024/02/20 09:25:57;;;;;;;1.92;0.52;;;10.10;99.90;;;;;;5164776;27;20445;-59
2024/02/20 09:28:24;;;;;;;2.55;0.40;;;10.30;1.00;;;;;;5174452;27;20519;-59
2024/02/20 09:30:51;;;;;;;1.90;0.50;;;10.20;99.90;;;;;;5175768;27;20742;-59
2024/02/20 09:33:18;;;;;;;3.20;0.52;;;10.10;1.00;;;;;;5174970;27;20675;-59
2024/02/20 09:35:45;;;;;;;1.20;0.60;;;10.00;1.00;;;;;;5175702;27;20415;-59
2024/02/20 09:38:16;;;;;;;1.70;0.50;;;9.90;1.00;;;;;;5174451;27;20416;-59
2024/02/20 09:40:43;;;;;;;1.95;0.50;;;10.10;1.00;;;;;;5174627;27;20454;-59
2024/02/20 09:43:17;;;;;;;2.80;0.52;;;10.40;1.00;;;;;;5173820;27;20452;-59
2024/02/20 09:45:45;;;;;;;1.50;0.50;;;10.40;25.70;;;;;;5174128;27;20416;-59
2024/02/20 09:48:15;;;;;;;1.60;0.50;;;10.30;99.90;;;;;;5173930;27;20462;-59
2024/02/20 09:50:43;;;;;;;1.80;0.50;;;10.30;1.00;;;;;;5174586;27;20506;-59
2024/02/20 09:53:11;;;;;;;2.60;0.60;;;10.40;2.80;;;;;;5174525;27;20456;-59
2024/02/20 09:55:38;;;;;;;2.50;0.50;;;10.50;2.90;;;;;;5174646;27;20456;-58
2024/02/20 09:58:06;;;;;;;2.58;0.50;;;10.70;99.90;;;;;;5175383;27;20476;-59
2024/02/20 10:00:34;;;;;;;3.10;0.50;;;11.00;1.00;;;;;;5174290;27;20767;-57
2024/02/20 10:03:03;;;;;;;3.50;0.50;;;11.20;1.00;;;;;;5174093;27;20420;-58
2024/02/20 10:05:31;;;;;;;2.67;0.50;;;11.40;1.00;;;;;;5173901;27;20507;-58
2024/02/20 10:08:00;;;;;;;2.67;0.50;;;11.50;1.00;;;;;;5172724;27;20460;-58
2024/02/20 10:10:27;;;;;;;1.63;0.50;;;11.20;99.90;;;;;;5173051;27;20738;-58
2024/02/20 10:12:58;;;;;;;2.70;0.50;;;11.00;99.90;;;;;;5173344;27;20422;-55
2024/02/20 10:15:25;;;;;;;2.05;0.60;;;10.90;1.00;;;;;;5172263;27;20428;-58
2024/02/20 10:18:01;;;;;;;2.08;0.50;;;10.80;1.00;;;;;;5171410;27;20459;-58
2024/02/20 10:20:29;;;;;;;2.60;0.52;;;10.90;1.00;;;;;;5156485;27;20699;-58
2024/02/20 10:23:05;;;;;;;2.00;0.50;;;10.80;1.00;;;;;;5158599;27;20437;-58
2024/02/20 10:25:32;;;;;;;2.20;0.50;;;11.10;1.00;;;;;;5160316;27;20463;-58
2024/02/20 10:27:59;;;;;;;4.40;0.80;;;11.00;99.90;;;;;;5155445;27;20918;-58
2024/02/20 10:30:26;;;;;;;3.92;0.52;;;10.90;1.00;;;;;;5152622;27;20460;-56
2024/02/20 10:32:53;;;;;;;2.95;0.50;;;10.90;1.00;;;;;;5157839;27;20467;-58
2024/02/20 10:35:23;;;;;;;2.08;0.50;;;11.30;1.00;;;;;;5159851;27;20853;-58
2024/02/20 10:38:01;;;;;;;3.35;0.60;;;11.60;1.00;;;;;;5159381;27;20841;-58
2024/02/20 10:40:28;;;;;;;3.30;0.50;;;11.30;99.90;;;;;;5160268;27;20416;-58
2024/02/20 10:42:56;;;;;;;1.90;0.50;;;11.10;1.00;;;;;;5160211;27;20470;-59
2024/02/20 10:45:23;;;;;;;2.25;0.50;;;11.00;99.90;;;;;;5158599;27;20510;-59
2024/02/20 10:47:55;;;;;;;1.30;0.50;;;11.10;99.90;;;;;;5157717;27;20466;-59
2024/02/20 10:50:24;;;;;;;1.00;0.40;;;11.10;99.90;;;;;;5157376;27;20425;-60
2024/02/20 10:52:54;;;;;;;2.10;0.40;;;11.20;99.90;;;;;;5158637;27;20423;-59
2024/02/20 10:55:21;;;;;;;1.70;0.50;;;11.30;99.90;;;;;;5158569;27;20756;-60
2024/02/20 10:57:49;;;;;;;3.23;0.40;;;11.40;99.90;;;;;;5155893;27;20429;-60
2024/02/20 11:00:19;;;;;;;3.40;0.40;;;11.20;99.90;;;;;;5154215;27;20452;-58
2024/02/20 11:02:48;;;;;;;2.45;0.50;;;11.10;99.90;;;;;;5152826;27;20468;-59
2024/02/20 11:05:15;;;;;;;1.70;0.40;;;10.80;99.90;;;;;;5152046;27;20482;-58
2024/02/20 11:07:44;;;;;;;2.80;0.40;;;10.90;99.90;;;;;;5155130;27;20519;-59
2024/02/20 11:10:16;;;;;;;1.88;0.40;;;11.00;99.90;;;;;;5156543;27;20432;-59
2024/02/20 11:12:45;;;;;;;2.90;0.50;;;10.90;99.90;;;;;;5156579;27;20489;-59
2024/02/20 11:15:19;;;;;;;1.80;0.30;;;11.30;99.90;;;;;;5159772;27;20468;-59
2024/02/20 11:17:47;;;;;;;1.05;0.40;;;11.60;99.90;;;;;;5156777;27;20420;-59
2024/02/20 11:20:17;;;;;;;1.00;0.50;;;11.60;99.90;;;;;;5155846;27;20464;-59
2024/02/20 11:22:46;;;;;;;2.03;0.40;;;11.80;99.90;;;;;;5156690;27;21146;-60
2024/02/20 11:25:15;;;;;;;1.52;0.50;;;12.00;99.90;;;;;;5158082;27;20412;-59
2024/02/20 11:27:46;;;;;;;2.05;0.40;;;11.90;32.30;;;;;;5158185;27;20497;-60
2024/02/20 11:30:19;;;;;;;2.17;0.40;;;11.90;13.00;;;;;;5156659;27;20464;-58
2024/02/20 11:32:46;;;;;;;2.10;0.40;;;12.30;42.40;;;;;;5157977;27;20953;-59
2024/02/20 11:35:23;;;;;;;3.17;0.40;;;12.90;11.70;;;;;;5156642;27;20524;-59
2024/02/20 11:37:55;;;;;;;2.50;0.40;;;13.00;1.00;;;;;;5157290;27;20413;-60
2024/02/20 11:40:25;;;;;;;3.33;0.40;;;12.80;1.00;;;;;;5157689;27;20420;-59
2024/02/20 11:42:55;;;;;;;2.13;0.40;;;13.00;1.00;;;;;;5158202;27;20427;-59
2024/02/20 11:45:24;;;;;;;1.20;0.40;;;12.90;1.00;;;;;;5157833;27;20412;-61
2024/02/20 11:48:04;;;;;;;1.33;0.40;;;12.80;1.00;;;;;;5156290;27;20691;-61
2024/02/20 11:50:32;;;;;;;2.63;0.40;;;12.50;1.00;;;;;;5156822;27;20433;-61
2024/02/20 11:53:03;;;;;;;2.20;0.30;;;12.30;1.00;;;;;;5158133;27;20497;-60
2024/02/20 11:55:32;;;;;;;1.80;0.50;;;12.50;1.00;;;;;;5158773;27;20472;-60
2024/02/20 11:58:00;;;;;;;0.80;0.40;;;12.80;1.00;;;;;;5156452;27;20468;-59
2024/02/20 12:00:33;;;;;;;1.85;0.30;;;13.00;1.00;;;;;;5158227;27;20639;-59
2024/02/20 12:03:02;;;;;;;1.30;0.40;;;13.40;1.00;;;;;;5157871;27;20413;-60
2024/02/20 12:05:37;;;;;;;0.80;0.40;;;13.60;1.00;;;;;;5154437;27;20436;-60
2024/02/20 12:08:14;;;;;;;1.60;0.40;;;13.70;1.00;;;;;;5137714;27;20438;-60
2024/02/20 12:10:42;;;;;;;2.77;0.40;;;13.80;1.00;;;;;;5145326;27;20803;-60
2024/02/20 12:13:14;;;;;;;2.55;0.30;;;13.80;1.00;;;;;;5157286;27;20489;-60
2024/02/20 12:15:44;;;;;;;1.77;0.30;;;13.90;1.00;;;;;;5157951;27;20420;-60
2024/02/20 12:18:11;;;;;;;1.40;0.30;;;13.90;1.00;;;;;;5157476;27;20405;-60
2024/02/20 12:20:39;;;;;;;1.50;0.45;;;14.10;1.00;;;;;;5158014;27;20670;-61
2024/02/20 12:23:10;;;;;;;0.95;0.40;;;14.20;1.00;;;;;;5156390;27;20484;-60
2024/02/20 12:25:37;;;;;;;1.40;0.40;;;14.00;1.00;;;;;;5154661;27;20416;-60
2024/02/20 12:28:06;;;;;;;2.87;0.30;;;14.20;1.00;;;;;;5154412;27;20432;-60
2024/02/20 12:30:33;;;;;;;1.60;0.30;;;14.20;1.00;;;;;;5154372;27;20417;-60
2024/02/20 12:33:00;;;;;;;2.60;0.40;;;14.10;1.00;;;;;;5156006;27;20504;-60
2024/02/20 12:35:27;;;;;;;5.60;0.50;;;13.80;1.00;;;;;;5158119;27;20456;-60
2024/02/20 12:37:54;;;;;;;1.40;0.40;;;13.60;1.00;;;;;;5158100;27;20465;-61
2024/02/20 12:40:24;;;;;;;1.60;0.50;;;13.40;1.00;;;;;;5157652;27;20759;-61
2024/02/20 12:42:51;;;;;;;1.58;0.40;;;13.10;1.00;;;;;;5156407;27;20787;-62
2024/02/20 12:45:18;;;;;;;2.38;0.50;;;12.70;1.00;;;;;;5154964;27;20496;-62
2024/02/20 12:47:45;;;;;;;1.08;0.40;;;12.60;1.00;;;;;;5156867;27;20759;-62
2024/02/20 12:50:12;;;;;;;2.20;0.40;;;12.30;1.00;;;;;;5157489;27;20452;-63
2024/02/20 12:52:39;;;;;;;2.50;0.50;;;12.10;1.00;;;;;;5156651;27;20489;-63
2024/02/20 12:55:06;;;;;;;3.10;0.47;;;11.90;1.00;;;;;;5157177;27;20973;-63
2024/02/20 12:57:35;;;;;;;0.93;0.40;;;11.80;1.00;;;;;;5156830;27;20436;-63
2024/02/20 13:00:03;;;;;;;1.58;0.40;;;11.60;1.00;;;;;;5157453;27;20791;-63
2024/02/20 13:02:30;;;;;;;1.58;0.40;;;11.70;1.00;;;;;;5157191;27;20765;-63
2024/02/20 13:04:57;;;;;;;2.13;0.40;;;11.50;1.00;;;;;;5157396;27;20436;-63
2024/02/20 13:07:24;;;;;;;0.80;0.40;;;11.90;1.00;;;;;;5155641;27;20818;-62